首页
METAR-TAF:

METAR-TAF

机场 :

Mosinee, 威斯康辛州, 美国

纬度: 44-47N, 经度: 089-40W, 海拔: 389米

当前天气观测

该预报发布于39分钟前的18:45 UTC
风速11节,风向西转西南
温度 -3°C
湿度 68%
气压 1021 hPa
能見度: 16.1公里
阴天层高于2100英尺

METAR: KCWA 141845Z 24011KT 10SM OVC021 M03/M08 A3014

时间: 13:24 (19:24 UTC)

预报

该预报发布于1小时和57分钟前的17:27 UTC
预报有效从14日的 18点(UTC)到 15日的 18点(UTC)
风速11节,风向西转西南,有时为16节阵风
能見度: 10公里
散云层高于2000英尺
短暂存在
从 14日的 18点(UTC)到 14日的 20点(UTC)
多云层高于2000英尺
从 14日的 2300点(UTC)
风速8节,风向西转西南
能見度: 10公里
散云层高于4000英尺
从 15日的 0200点(UTC)
风速10节,风向西
能見度: 10公里
散云层高于2000英尺
多云层高于4000英尺
从 15日的 0700点(UTC)
风速9节,风向西
能見度: 10公里
多云层高于2000英尺
从 15日的 1000点(UTC)
风速6节,风向西转西北
能見度: 10公里
多云层高于1500英尺
从 15日的 1400点(UTC)
风速6节,风向北转西北
能見度: 10公里
散云层高于2000英尺
散云层高于25000英尺

TAF: KCWA 141727Z 1418/1518 25011G16KT P6SM SCT020 TEMPO 1418/1420 BKN020 FM142300 25008KT P6SM SCT040 WS020/28035KT FM150200 26010KT P6SM SCT020 BKN040 WS020/29040KT FM150700 27009KT P6SM BKN020 WS020/31030KT FM151000 30006KT P6SM BKN015 FM151400 33006KT P6SM SCT020 SCT250

超过4000个机场的气象观测和天气预报(METAR&TAF报告)。

可查询的气象台以黄色和红色小点在地图上表示。

将鼠标移到小点上方,可查看气象台名称。

然后点击查看天气观测和预报。

如需切换地图:点击带黑十字的绿色按钮放大地图;点击带横线的绿色按钮缩小地图;或者点击绿色箭头查看邻近地区的地图。


METAR-TAF: